createdAt,value
2019-05-17T00:00:47.437Z,90.10
2019-05-17T00:03:17.143Z,90.20
2019-05-17T00:05:46.631Z,90.40
2019-05-17T00:08:16.457Z,90.70
2019-05-17T00:10:46.994Z,90.70
2019-05-17T00:13:17.426Z,90.90
2019-05-17T00:15:47.431Z,91.00
2019-05-17T00:18:17.269Z,90.60
2019-05-17T00:20:46.903Z,90.10
2019-05-17T00:23:17.405Z,89.70
2019-05-17T00:25:47.044Z,89.40
2019-05-17T00:28:16.567Z,88.90
2019-05-17T00:30:46.606Z,89.00
2019-05-17T00:33:17.006Z,89.40
2019-05-17T00:35:47.011Z,90.30
2019-05-17T00:38:16.867Z,90.60
2019-05-17T00:40:47.026Z,90.40
2019-05-17T00:43:16.893Z,90.30
2019-05-17T00:45:46.846Z,90.30
2019-05-17T00:48:17.158Z,90.60
2019-05-17T00:50:53.515Z,90.80
2019-05-17T00:53:17.813Z,90.90
2019-05-17T00:55:47.150Z,91.00
2019-05-17T00:58:17.242Z,91.00
2019-05-17T01:00:47.955Z,90.90
2019-05-17T01:03:17.366Z,91.20
2019-05-17T01:05:47.357Z,91.30
2019-05-17T01:08:17.451Z,91.30
2019-05-17T01:10:47.413Z,91.40
2019-05-17T01:13:17.360Z,91.30
2019-05-17T01:15:47.414Z,91.20
2019-05-17T01:18:16.790Z,91.10
2019-05-17T01:20:47.436Z,91.10
2019-05-17T01:23:16.811Z,90.80
2019-05-17T01:25:48.056Z,90.60
2019-05-17T01:28:17.209Z,90.60
2019-05-17T01:30:47.008Z,90.70
2019-05-17T01:33:17.197Z,91.00
2019-05-17T01:35:46.771Z,90.90
2019-05-17T01:38:17.710Z,91.10
2019-05-17T01:40:47.235Z,91.30
2019-05-17T01:43:16.769Z,91.20
2019-05-17T01:45:48.008Z,91.20
2019-05-17T01:48:17.383Z,91.00
2019-05-17T01:50:46.718Z,91.00
2019-05-17T01:53:16.589Z,91.50
2019-05-17T01:55:46.646Z,91.20
2019-05-17T01:58:16.459Z,91.50
2019-05-17T02:00:46.514Z,91.80
2019-05-17T02:03:17.301Z,92.00
2019-05-17T02:05:47.385Z,92.10
2019-05-17T02:08:17.139Z,91.90
2019-05-17T02:10:46.696Z,91.90
2019-05-17T02:13:16.425Z,91.70
2019-05-17T02:15:47.050Z,92.10
2019-05-17T02:18:17.360Z,92.10
2019-05-17T02:20:46.821Z,92.00
2019-05-17T02:23:17.446Z,92.10
2019-05-17T02:25:47.284Z,92.00
2019-05-17T02:28:16.677Z,91.90
2019-05-17T02:30:46.420Z,92.00
2019-05-17T02:33:15.925Z,92.20
2019-05-17T02:35:45.409Z,92.40
2019-05-17T02:38:14.737Z,92.20
2019-05-17T02:40:44.056Z,92.00
2019-05-17T02:43:13.499Z,92.10
2019-05-17T02:45:43.532Z,92.20
2019-05-17T02:48:13.572Z,92.50
2019-05-17T02:50:47.403Z,91.90
2019-05-17T02:53:15.028Z,92.00
2019-05-17T02:55:44.340Z,92.10
2019-05-17T02:58:13.690Z,92.10
2019-05-17T03:00:44.267Z,92.20
2019-05-17T03:03:13.884Z,92.40
2019-05-17T03:05:43.385Z,92.40
2019-05-17T03:08:12.655Z,92.60
2019-05-17T03:10:43.302Z,92.30
2019-05-17T03:13:17.048Z,92.00
2019-05-17T03:15:43.755Z,92.30
2019-05-17T03:18:13.568Z,92.30
2019-05-17T03:20:43.321Z,92.10
2019-05-17T03:23:12.870Z,92.40
2019-05-17T03:25:44.039Z,92.50
2019-05-17T03:28:13.617Z,92.70
2019-05-17T03:30:46.809Z,92.50
2019-05-17T03:33:16.358Z,92.90
2019-05-17T03:35:46.473Z,92.90
2019-05-17T03:38:16.021Z,93.00
2019-05-17T03:41:07.909Z,93.00
2019-05-17T03:43:16.489Z,92.70
2019-05-17T03:45:45.805Z,92.70
2019-05-17T03:48:15.309Z,92.60
2019-05-17T03:50:44.623Z,93.10
2019-05-17T03:53:14.042Z,93.00
2019-05-17T03:55:43.352Z,93.10
2019-05-17T03:58:12.910Z,92.70
2019-05-17T04:00:42.965Z,92.00
2019-05-17T04:03:13.581Z,91.50
2019-05-17T04:05:43.208Z,92.30
2019-05-17T04:08:13.906Z,92.10
2019-05-17T04:10:43.506Z,92.20
2019-05-17T04:13:13.208Z,91.40
2019-05-17T04:15:43.297Z,91.10
2019-05-17T04:18:13.239Z,91.10
2019-05-17T04:20:43.488Z,91.40
2019-05-17T04:23:13.157Z,91.80
2019-05-17T04:25:43.563Z,92.00
2019-05-17T04:28:13.784Z,91.50
2019-05-17T04:30:43.569Z,91.20
2019-05-17T04:33:13.082Z,91.50
2019-05-17T04:35:43.241Z,91.80
2019-05-17T04:38:12.961Z,92.20
2019-05-17T04:40:43.232Z,92.20
2019-05-17T04:43:13.655Z,92.10
2019-05-17T04:45:43.174Z,92.40
2019-05-17T04:48:13.340Z,92.40
2019-05-17T04:50:43.054Z,92.30
2019-05-17T04:53:13.245Z,92.50
2019-05-17T04:55:43.349Z,92.50
2019-05-17T04:58:13.725Z,93.00
2019-05-17T05:00:43.440Z,92.90
2019-05-17T05:03:12.983Z,92.90
2019-05-17T05:05:42.969Z,92.80
2019-05-17T05:08:13.109Z,92.90
2019-05-17T05:10:42.890Z,93.00
2019-05-17T05:13:13.312Z,92.90
2019-05-17T05:15:44.571Z,92.70
2019-05-17T05:18:14.536Z,92.80
2019-05-17T05:20:44.088Z,92.80
2019-05-17T05:23:13.658Z,92.80
2019-05-17T05:25:43.424Z,92.60
2019-05-17T05:28:12.808Z,92.60
2019-05-17T05:30:42.493Z,92.70
2019-05-17T05:33:12.901Z,92.30
2019-05-17T05:35:42.853Z,92.30
2019-05-17T05:38:13.248Z,92.10
2019-05-17T05:40:43.780Z,91.80
2019-05-17T05:43:13.151Z,91.90
2019-05-17T05:45:42.490Z,91.30
2019-05-17T05:48:12.808Z,90.70
2019-05-17T05:50:43.399Z,90.80
2019-05-17T05:53:13.304Z,90.80
2019-05-17T05:55:43.345Z,90.50
2019-05-17T05:58:13.010Z,90.20
2019-05-17T06:00:43.022Z,90.00
2019-05-17T06:03:12.593Z,89.20
2019-05-17T06:05:42.648Z,89.70
2019-05-17T06:08:12.480Z,89.30
2019-05-17T06:10:42.653Z,88.40
2019-05-17T06:13:13.055Z,87.70
2019-05-17T06:15:43.206Z,87.20
2019-05-17T06:18:12.743Z,87.30
2019-05-17T06:20:42.306Z,87.50
2019-05-17T06:23:12.439Z,86.40
2019-05-17T06:25:43.596Z,86.30
2019-05-17T06:28:13.163Z,86.20
2019-05-17T06:30:43.219Z,85.30
2019-05-17T06:33:26.803Z,85.60
2019-05-17T06:35:43.661Z,85.00
2019-05-17T06:38:13.174Z,84.80
2019-05-17T06:40:42.590Z,83.60
2019-05-17T06:43:12.950Z,83.30
2019-05-17T06:45:42.691Z,82.80
2019-05-17T06:48:12.123Z,82.70
2019-05-17T06:50:43.196Z,82.40
2019-05-17T06:53:12.765Z,82.60
2019-05-17T06:55:42.643Z,82.00
2019-05-17T06:58:12.452Z,81.10
2019-05-17T07:00:41.808Z,81.20
2019-05-17T07:03:11.133Z,80.80
2019-05-17T07:05:42.120Z,79.30
2019-05-17T07:08:11.441Z,79.60
2019-05-17T07:10:40.861Z,78.70
2019-05-17T07:13:10.815Z,78.10
2019-05-17T07:15:47.482Z,79.50
2019-05-17T07:18:11.335Z,73.70
2019-05-17T07:20:40.740Z,71.60
2019-05-17T07:23:10.685Z,70.80
2019-05-17T07:25:40.292Z,70.20
2019-05-17T07:28:10.284Z,70.00
2019-05-17T07:30:40.330Z,69.60
2019-05-17T07:33:10.301Z,69.60
2019-05-17T07:35:39.992Z,70.50
2019-05-17T07:38:10.644Z,70.90
2019-05-17T07:40:40.217Z,71.50
2019-05-17T07:43:13.774Z,71.60
2019-05-17T07:45:40.794Z,71.40
2019-05-17T07:48:10.213Z,72.30
2019-05-17T07:50:40.075Z,71.10
2019-05-17T07:53:10.321Z,70.70
2019-05-17T07:55:40.141Z,70.00
2019-05-17T07:58:10.324Z,68.80
2019-05-17T08:00:40.314Z,69.50
2019-05-17T08:03:12.885Z,68.50
2019-05-17T08:05:41.023Z,67.20
2019-05-17T08:08:10.458Z,68.30
2019-05-17T08:10:40.837Z,68.20
2019-05-17T08:13:24.757Z,67.70
2019-05-17T08:15:41.631Z,67.80
2019-05-17T08:18:11.218Z,67.30
2019-05-17T08:20:40.594Z,66.70
2019-05-17T08:23:11.271Z,65.60
2019-05-17T08:25:51.997Z,65.80
2019-05-17T08:28:11.642Z,65.80
2019-05-17T08:30:41.367Z,65.90
2019-05-17T08:33:11.346Z,65.00
2019-05-17T08:35:40.912Z,65.70
2019-05-17T08:38:10.697Z,65.60
2019-05-17T08:40:40.790Z,64.30
2019-05-17T08:43:10.340Z,64.50
2019-05-17T08:45:40.927Z,63.30
2019-05-17T08:48:10.467Z,64.10
2019-05-17T08:50:40.464Z,63.80
2019-05-17T08:53:10.605Z,63.70
2019-05-17T08:55:41.297Z,63.00
2019-05-17T08:58:10.938Z,63.40
2019-05-17T09:00:40.975Z,63.20
2019-05-17T09:03:10.904Z,63.00
2019-05-17T09:05:41.674Z,63.10
2019-05-17T09:08:11.372Z,62.80
2019-05-17T09:10:41.164Z,61.40
2019-05-17T09:13:14.378Z,62.00
2019-05-17T09:15:41.594Z,62.60
2019-05-17T09:18:10.924Z,61.90
2019-05-17T09:20:40.798Z,61.20
2019-05-17T09:23:10.299Z,62.40
2019-05-17T09:25:39.983Z,60.80
2019-05-17T09:28:10.306Z,59.90
2019-05-17T09:30:40.427Z,60.80
2019-05-17T09:33:11.494Z,60.30
2019-05-17T09:35:41.289Z,59.40
2019-05-17T09:38:11.141Z,61.80
2019-05-17T09:40:40.589Z,59.40
2019-05-17T09:43:10.512Z,60.20
2019-05-17T09:45:40.784Z,58.80
2019-05-17T09:48:10.731Z,58.40
2019-05-17T09:50:40.242Z,59.40
2019-05-17T09:53:10.735Z,59.50
2019-05-17T09:55:40.564Z,59.40
2019-05-17T09:58:10.209Z,59.70
2019-05-17T10:00:39.531Z,59.70
2019-05-17T10:03:09.813Z,58.50
2019-05-17T10:05:40.684Z,58.10
2019-05-17T10:08:11.058Z,58.10
2019-05-17T10:10:40.421Z,57.20
2019-05-17T10:13:10.097Z,56.60
2019-05-17T10:15:41.010Z,56.70
2019-05-17T10:18:11.226Z,56.40
2019-05-17T10:20:40.597Z,56.80
2019-05-17T10:23:10.760Z,57.00
2019-05-17T10:25:40.529Z,56.70
2019-05-17T10:28:10.282Z,56.10
2019-05-17T10:30:40.241Z,55.70
2019-05-17T10:33:10.105Z,55.90
2019-05-17T10:35:40.649Z,55.10
2019-05-17T10:38:10.609Z,56.00
2019-05-17T10:40:41.095Z,55.60
2019-05-17T10:43:10.686Z,56.20
2019-05-17T10:45:40.399Z,56.60
2019-05-17T10:48:10.385Z,56.30
2019-05-17T10:50:40.816Z,56.00
2019-05-17T10:53:10.428Z,55.60
2019-05-17T10:55:40.023Z,54.20
2019-05-17T10:58:10.193Z,54.10
2019-05-17T11:00:41.435Z,54.80
2019-05-17T11:03:11.134Z,55.40
2019-05-17T11:05:40.598Z,53.30
2019-05-17T11:08:10.928Z,52.60
2019-05-17T11:10:40.342Z,53.90
2019-05-17T11:13:09.915Z,53.30
2019-05-17T11:15:39.330Z,50.40
2019-05-17T11:18:08.643Z,46.00
2019-05-17T11:20:37.991Z,47.40
2019-05-17T11:23:07.306Z,44.80
2019-05-17T11:25:36.652Z,40.00
2019-05-17T11:28:06.154Z,41.30
2019-05-17T11:30:35.700Z,37.10
2019-05-17T11:33:05.017Z,38.80
2019-05-17T11:35:34.373Z,38.60
2019-05-17T11:38:04.062Z,35.70
2019-05-17T11:40:33.400Z,34.60
2019-05-17T11:43:02.778Z,38.80
2019-05-17T11:45:32.909Z,37.80
2019-05-17T11:48:02.364Z,39.20
2019-05-17T11:50:31.698Z,39.50
2019-05-17T11:53:01.027Z,39.30
2019-05-17T11:55:30.369Z,38.80
2019-05-17T11:57:59.689Z,39.40
2019-05-17T12:00:29.258Z,44.70
2019-05-17T12:02:58.601Z,41.00
2019-05-17T12:05:28.061Z,40.70
2019-05-17T12:07:57.384Z,40.70
2019-05-17T12:10:26.792Z,40.80
2019-05-17T12:12:56.122Z,41.20
2019-05-17T12:15:25.466Z,41.90
2019-05-17T12:17:54.782Z,39.60
2019-05-17T12:20:24.359Z,40.50
2019-05-17T12:22:53.684Z,40.50
2019-05-17T12:25:23.030Z,39.90
2019-05-17T12:27:52.382Z,41.50
2019-05-17T12:30:21.869Z,39.40
2019-05-17T12:32:51.187Z,37.80
2019-05-17T12:35:20.567Z,38.90
2019-05-17T12:37:49.874Z,39.50
2019-05-17T12:40:19.503Z,39.00
2019-05-17T12:42:48.840Z,39.80
2019-05-17T12:45:18.303Z,40.60
2019-05-17T12:47:47.636Z,40.80
2019-05-17T12:50:17.010Z,40.50
2019-05-17T12:52:46.346Z,40.80
2019-05-17T12:55:15.806Z,41.20
2019-05-17T12:57:45.143Z,41.30
2019-05-17T13:00:15.170Z,38.70
2019-05-17T13:02:44.535Z,38.40
2019-05-17T13:05:14.651Z,40.10
2019-05-17T13:07:43.985Z,40.80
2019-05-17T13:10:13.437Z,41.60
2019-05-17T13:12:42.776Z,39.80
2019-05-17T13:15:12.329Z,41.20
2019-05-17T13:17:41.671Z,40.00
2019-05-17T13:20:12.498Z,39.40
2019-05-17T13:22:41.836Z,40.30
2019-05-17T13:25:11.416Z,42.50
2019-05-17T13:27:40.748Z,41.00
2019-05-17T13:30:11.061Z,38.30
2019-05-17T13:32:40.406Z,40.60
2019-05-17T13:35:10.537Z,40.40
2019-05-17T13:37:40.026Z,39.10
2019-05-17T13:40:09.974Z,38.40
2019-05-17T13:42:39.514Z,38.60
2019-05-17T13:45:10.534Z,40.80
2019-05-17T13:47:39.865Z,41.60
2019-05-17T13:50:09.795Z,41.00
2019-05-17T13:52:39.609Z,39.90
2019-05-17T13:55:09.332Z,39.80
2019-05-17T13:57:38.674Z,40.00
2019-05-17T14:00:09.692Z,39.50
2019-05-17T14:02:39.034Z,39.60
2019-05-17T14:05:08.684Z,40.10
2019-05-17T14:07:38.022Z,41.70
2019-05-17T14:10:24.502Z,42.90
2019-05-17T14:12:39.511Z,45.50
2019-05-17T14:15:11.992Z,41.60
2019-05-17T14:17:41.332Z,42.80
2019-05-17T14:20:10.890Z,43.40
2019-05-17T14:22:40.225Z,43.40
2019-05-17T14:25:09.759Z,42.60
2019-05-17T14:27:39.110Z,43.70
2019-05-17T14:30:08.820Z,42.90
2019-05-17T14:32:38.227Z,41.30
2019-05-17T14:35:08.163Z,42.90
2019-05-17T14:37:37.565Z,41.80
2019-05-17T14:40:08.506Z,42.30
2019-05-17T14:42:37.841Z,44.10
2019-05-17T14:45:11.535Z,45.10
2019-05-17T14:47:41.300Z,45.10
2019-05-17T14:50:11.222Z,43.90
2019-05-17T14:52:40.578Z,46.10
2019-05-17T14:55:10.490Z,44.40
2019-05-17T14:57:42.786Z,42.50
2019-05-17T15:00:11.683Z,43.50
2019-05-17T15:02:41.017Z,40.60
2019-05-17T15:05:10.401Z,38.20
2019-05-17T15:07:39.745Z,41.50
2019-05-17T15:10:09.297Z,49.00
2019-05-17T15:12:38.629Z,48.30
2019-05-17T15:15:08.444Z,55.80
2019-05-17T15:17:37.787Z,59.90
2019-05-17T15:20:08.404Z,62.40
2019-05-17T15:22:37.762Z,67.10
2019-05-17T15:25:07.384Z,69.90
2019-05-17T15:27:36.748Z,69.50
2019-05-17T15:30:10.207Z,65.00
2019-05-17T15:32:39.543Z,61.60
2019-05-17T15:35:09.141Z,55.80
2019-05-17T15:37:38.533Z,50.40
2019-05-17T15:40:08.576Z,51.90
2019-05-17T15:42:44.172Z,52.30
2019-05-17T15:45:09.107Z,53.10
2019-05-17T15:47:38.426Z,53.70
2019-05-17T15:50:08.341Z,55.10
2019-05-17T15:52:37.668Z,54.70
2019-05-17T15:55:08.627Z,56.00
2019-05-17T15:57:37.934Z,56.50
2019-05-17T16:00:07.924Z,56.50
2019-05-17T16:02:37.276Z,56.40
2019-05-17T16:05:06.916Z,56.10
2019-05-17T16:07:36.237Z,56.20
2019-05-17T16:10:10.162Z,57.20
2019-05-17T16:12:39.535Z,58.20
2019-05-17T16:15:09.883Z,58.90
2019-05-17T16:17:39.188Z,58.70
2019-05-17T16:20:09.049Z,57.80
2019-05-17T16:22:38.433Z,59.10
2019-05-17T16:25:08.005Z,59.20
2019-05-17T16:27:37.824Z,59.00
2019-05-17T16:30:08.644Z,59.10
2019-05-17T16:32:38.742Z,58.40
2019-05-17T16:35:08.404Z,59.10
2019-05-17T16:37:37.730Z,60.40
2019-05-17T16:40:07.480Z,62.00
2019-05-17T16:42:36.927Z,62.00
2019-05-17T16:45:08.996Z,62.10
2019-05-17T16:47:38.317Z,61.90
2019-05-17T16:50:11.180Z,61.10
2019-05-17T16:52:40.529Z,61.40
2019-05-17T16:55:10.029Z,63.00
2019-05-17T16:57:39.408Z,61.40
2019-05-17T17:00:36.876Z,60.50
2019-05-17T17:03:08.185Z,62.50
2019-05-17T17:05:37.872Z,66.50
2019-05-17T17:08:07.718Z,67.60
2019-05-17T17:10:37.134Z,66.50
2019-05-17T17:13:06.757Z,68.30
2019-05-17T17:15:36.231Z,67.10
2019-05-17T17:18:06.097Z,68.00
2019-05-17T17:20:35.546Z,66.40
2019-05-17T17:23:05.006Z,66.00
2019-05-17T17:25:34.417Z,66.00
2019-05-17T17:28:06.004Z,66.80
2019-05-17T17:30:34.923Z,67.50
2019-05-17T17:33:04.243Z,67.90
2019-05-17T17:35:33.647Z,67.90
2019-05-17T17:38:02.982Z,68.40
2019-05-17T17:40:32.331Z,68.30
2019-05-17T17:43:01.726Z,69.10
2019-05-17T17:45:31.297Z,70.80
2019-05-17T17:48:00.618Z,71.60
2019-05-17T17:50:29.947Z,72.60
2019-05-17T17:53:00.994Z,72.50
2019-05-17T17:55:30.896Z,70.00
2019-05-17T17:58:00.220Z,70.20
2019-05-17T18:00:29.788Z,69.70
2019-05-17T18:02:59.448Z,69.80
2019-05-17T18:05:28.782Z,69.90
2019-05-17T18:07:58.180Z,69.70
2019-05-17T18:10:31.796Z,70.00
2019-05-17T18:13:01.281Z,68.80
2019-05-17T18:15:44.791Z,66.60
2019-05-17T18:18:15.160Z,66.30
2019-05-17T18:20:44.661Z,65.80
2019-05-17T18:23:14.192Z,64.70
2019-05-17T18:25:43.679Z,65.30
2019-05-17T18:28:12.988Z,66.90
2019-05-17T18:30:42.328Z,67.10
2019-05-17T18:33:11.807Z,64.70
2019-05-17T18:35:41.123Z,63.90
2019-05-17T18:38:10.605Z,64.80
2019-05-17T18:40:39.964Z,67.40
2019-05-17T18:43:09.300Z,68.40
2019-05-17T18:45:38.641Z,68.60
2019-05-17T18:48:08.034Z,70.60
2019-05-17T18:50:37.381Z,71.80
2019-05-17T18:53:16.313Z,72.60
2019-05-17T18:55:38.227Z,72.20
2019-05-17T18:58:07.603Z,71.10
2019-05-17T19:00:36.950Z,71.70
2019-05-17T19:03:06.274Z,72.00
2019-05-17T19:05:35.634Z,72.50
2019-05-17T19:08:05.012Z,72.30
2019-05-17T19:10:34.367Z,73.80
2019-05-17T19:13:03.691Z,75.00
2019-05-17T19:15:33.032Z,75.20
2019-05-17T19:18:02.708Z,75.40
2019-05-17T19:21:18.789Z,74.60
2019-05-17T19:23:28.793Z,74.50
2019-05-17T19:25:58.177Z,74.30
2019-05-17T19:28:35.644Z,74.60
2019-05-17T19:31:07.944Z,74.40
2019-05-17T19:33:37.389Z,74.60
2019-05-17T19:36:16.877Z,75.20
2019-05-17T19:38:48.231Z,75.50
2019-05-17T19:41:17.290Z,73.20
2019-05-17T19:43:46.619Z,71.90
2019-05-17T19:46:18.689Z,73.10
2019-05-17T19:48:48.081Z,73.10
2019-05-17T19:51:17.429Z,73.90
2019-05-17T19:53:46.757Z,74.50
2019-05-17T19:56:16.103Z,74.50
2019-05-17T19:58:46.533Z,75.60
2019-05-17T20:01:16.073Z,76.40
2019-05-17T20:03:48.238Z,77.20
2019-05-17T20:06:17.603Z,78.30
2019-05-17T20:08:47.030Z,80.00
2019-05-17T20:11:16.359Z,80.00
2019-05-17T20:13:45.823Z,79.30
2019-05-17T20:16:15.192Z,78.90
2019-05-17T20:18:46.613Z,79.40
2019-05-17T20:21:15.984Z,78.70
2019-05-17T20:23:45.315Z,79.10
2019-05-17T20:26:14.632Z,79.40
2019-05-17T20:28:43.970Z,80.00
2019-05-17T20:31:13.287Z,80.10
2019-05-17T20:33:42.641Z,79.90
2019-05-17T20:36:12.103Z,79.40
2019-05-17T20:38:41.454Z,79.20
2019-05-17T20:41:12.917Z,78.10
2019-05-17T20:43:44.246Z,75.60
2019-05-17T20:46:13.559Z,74.10
2019-05-17T20:48:42.904Z,71.90
2019-05-17T20:51:13.162Z,72.90
2019-05-17T20:53:42.559Z,73.70
2019-05-17T20:56:13.709Z,74.00
2019-05-17T20:58:43.041Z,74.10
2019-05-17T21:01:12.359Z,74.60
2019-05-17T21:03:41.696Z,75.50
2019-05-17T21:06:12.480Z,74.40
2019-05-17T21:08:45.949Z,74.20
2019-05-17T21:11:12.773Z,74.80
2019-05-17T21:13:42.164Z,72.50
2019-05-17T21:16:11.510Z,72.50
2019-05-17T21:18:42.983Z,71.30
2019-05-17T21:21:15.091Z,71.50
2019-05-17T21:23:44.456Z,71.70
2019-05-17T21:26:17.152Z,73.70
2019-05-17T21:28:47.337Z,75.80
2019-05-17T21:31:16.670Z,77.30
2019-05-17T21:47:38.888Z,81.60
2019-05-17T21:50:08.906Z,79.70
2019-05-17T21:52:39.209Z,81.40
2019-05-17T21:55:08.692Z,81.60
2019-05-17T21:57:38.047Z,81.20
2019-05-17T22:00:12.091Z,81.40
2019-05-17T22:02:41.606Z,81.40
2019-05-17T22:05:11.070Z,81.70
2019-05-17T22:07:40.416Z,80.80
2019-05-17T22:10:14.595Z,79.00
2019-05-17T22:12:43.929Z,79.00
2019-05-17T22:15:13.394Z,77.00
2019-05-17T22:17:42.734Z,77.50
2019-05-17T22:20:12.117Z,80.00
2019-05-17T22:22:41.435Z,79.50
2019-05-17T22:25:10.846Z,78.80
2019-05-17T22:27:40.209Z,79.50
2019-05-17T22:30:09.722Z,80.50
2019-05-17T22:32:39.077Z,81.10
2019-05-17T22:35:08.716Z,82.90
2019-05-17T22:37:38.140Z,82.50
2019-05-17T22:40:07.923Z,82.60
2019-05-17T22:42:39.409Z,82.00
2019-05-17T22:45:08.762Z,81.80
2019-05-17T22:47:38.078Z,82.40
2019-05-17T22:50:10.410Z,82.30
2019-05-17T22:52:39.729Z,83.10
2019-05-17T22:55:09.133Z,83.70
2019-05-17T22:57:38.455Z,83.00
2019-05-17T23:00:08.890Z,83.20
2019-05-17T23:02:38.213Z,82.60
2019-05-17T23:05:08.472Z,82.60
2019-05-17T23:07:37.792Z,82.50
2019-05-17T23:10:07.379Z,82.50
2019-05-17T23:12:36.771Z,82.70
2019-05-17T23:15:09.260Z,83.50
2019-05-17T23:17:38.573Z,84.70
2019-05-17T23:20:08.242Z,86.70
2019-05-17T23:22:37.548Z,86.20
2019-05-17T23:25:08.532Z,85.60
2019-05-17T23:27:37.854Z,84.70
2019-05-17T23:30:08.390Z,86.20
2019-05-17T23:32:37.710Z,86.80
2019-05-17T23:35:08.586Z,88.90
2019-05-17T23:37:37.903Z,89.70
2019-05-17T23:40:10.170Z,89.10
2019-05-17T23:42:39.469Z,89.10
2019-05-17T23:45:09.146Z,89.80
2019-05-17T23:47:38.474Z,90.20
2019-05-17T23:50:09.436Z,90.30
2019-05-17T23:52:38.757Z,90.50
2019-05-17T23:55:09.404Z,90.80
2019-05-17T23:57:38.722Z,90.80
